createdAt,value
2024-03-17T00:03:33.130Z,86.42
2024-03-17T00:10:25.125Z,86.77
2024-03-17T00:17:28.816Z,87.02
2024-03-17T00:24:32.312Z,87.21
2024-03-17T00:31:18.177Z,87.14
2024-03-17T00:37:49.071Z,87.08
2024-03-17T00:44:25.532Z,86.67
2024-03-17T00:51:29.195Z,86.25
2024-03-17T00:58:06.498Z,85.97
2024-03-17T01:05:10.066Z,85.45
2024-03-17T01:12:05.092Z,85.41
2024-03-17T01:19:08.543Z,85.04
2024-03-17T01:26:14.176Z,84.92
2024-03-17T01:33:19.053Z,85.04
2024-03-17T01:40:12.433Z,85.07
2024-03-17T01:46:52.608Z,84.67
2024-03-17T01:53:56.355Z,83.80
2024-03-17T02:00:59.999Z,83.62
2024-03-17T02:07:54.390Z,83.46
2024-03-17T02:14:57.940Z,82.94
2024-03-17T02:21:54.702Z,82.89
2024-03-17T02:28:58.269Z,82.52
2024-03-17T02:36:01.732Z,82.35
2024-03-17T02:42:47.651Z,82.00
2024-03-17T02:49:56.997Z,81.39
2024-03-17T02:57:00.598Z,81.07
2024-03-17T03:03:54.742Z,80.97
2024-03-17T03:10:58.383Z,80.97
2024-03-17T03:17:52.803Z,80.85
2024-03-17T03:24:56.367Z,81.03
2024-03-17T03:32:02.850Z,81.44
2024-03-17T03:39:06.279Z,81.89
2024-03-17T03:46:09.921Z,82.12
2024-03-17T03:53:13.440Z,82.77
2024-03-17T04:05:29.487Z,83.28
2024-03-17T04:11:31.410Z,83.56
2024-03-17T04:17:53.034Z,83.79
2024-03-17T04:23:14.901Z,84.15
2024-03-17T04:29:04.298Z,84.14
2024-03-17T04:34:07.345Z,84.32
2024-03-17T04:40:09.166Z,84.84
2024-03-17T04:46:30.825Z,85.28
2024-03-17T04:52:52.432Z,85.06
2024-03-17T04:58:34.796Z,84.98
2024-03-17T05:04:36.647Z,84.93
2024-03-17T05:10:58.405Z,84.85
2024-03-17T05:17:20.147Z,84.78
2024-03-17T05:22:42.393Z,84.76
2024-03-17T05:28:44.138Z,84.64
2024-03-17T05:34:08.396Z,84.74
2024-03-17T05:39:10.193Z,84.62
2024-03-17T05:44:19.849Z,84.60
2024-03-17T05:50:21.495Z,84.36
2024-03-17T05:56:43.178Z,85.22
2024-03-17T06:03:04.850Z,85.15
2024-03-17T06:09:26.556Z,79.89
2024-03-17T06:15:48.305Z,73.70
2024-03-17T06:21:10.655Z,68.46
2024-03-17T06:26:13.834Z,65.43
2024-03-17T06:31:16.834Z,63.41
2024-03-17T06:36:18.786Z,62.63
2024-03-17T06:41:20.840Z,64.23
2024-03-17T06:47:22.632Z,63.76
2024-03-17T06:53:54.438Z,62.43
2024-03-17T07:00:16.082Z,61.05
2024-03-17T07:06:37.773Z,59.27
2024-03-17T07:12:59.457Z,59.93
2024-03-17T07:19:21.035Z,58.09
2024-03-17T07:25:44.335Z,56.24
2024-03-17T07:32:06.332Z,53.58
2024-03-17T07:37:35.865Z,51.74
2024-03-17T07:43:37.543Z,49.03
2024-03-17T07:49:59.188Z,48.32
2024-03-17T07:56:20.827Z,47.43
2024-03-17T08:01:42.862Z,47.01
2024-03-17T08:06:45.473Z,44.30
2024-03-17T08:11:48.046Z,43.22
2024-03-17T08:17:49.891Z,41.10
2024-03-17T08:24:11.643Z,41.20
2024-03-17T08:30:33.245Z,40.00
2024-03-17T08:36:15.044Z,39.53
2024-03-17T08:42:36.659Z,38.47
2024-03-17T08:48:58.404Z,39.49
2024-03-17T08:55:20.142Z,40.55
2024-03-17T09:01:44.368Z,41.06
2024-03-17T09:07:06.586Z,41.53
2024-03-17T09:12:18.648Z,39.26
2024-03-17T09:18:20.468Z,38.71
2024-03-17T09:24:42.104Z,37.11
2024-03-17T09:30:10.459Z,39.55
2024-03-17T09:35:12.470Z,41.47
2024-03-17T09:40:17.348Z,41.63
2024-03-17T09:45:59.131Z,41.49
2024-03-17T09:52:00.845Z,42.24
2024-03-17T09:58:22.579Z,40.97
2024-03-17T10:04:47.290Z,41.44
2024-03-17T10:10:13.826Z,40.86
2024-03-17T10:15:17.967Z,40.94
2024-03-17T10:20:24.795Z,40.96
2024-03-17T10:25:31.204Z,40.72
2024-03-17T10:30:33.749Z,41.61
2024-03-17T10:36:41.276Z,41.81
2024-03-17T10:42:05.261Z,41.33
2024-03-17T10:48:06.985Z,41.81
2024-03-17T10:53:29.082Z,40.88
2024-03-17T10:59:40.608Z,39.19
2024-03-17T11:05:07.436Z,40.33
2024-03-17T11:10:12.830Z,38.16
2024-03-17T11:15:29.369Z,37.59
2024-03-17T11:21:44.050Z,35.05
2024-03-17T11:28:20.487Z,36.46
2024-03-17T11:34:27.940Z,33.79
2024-03-17T11:41:08.241Z,33.13
2024-03-17T11:47:38.469Z,36.25
2024-03-17T11:54:00.094Z,37.37
2024-03-17T11:59:23.574Z,36.25
2024-03-17T12:05:25.298Z,35.60
2024-03-17T12:11:50.065Z,35.52
2024-03-17T12:18:11.753Z,35.91
2024-03-17T12:24:33.418Z,36.24
2024-03-17T12:30:55.056Z,36.46
2024-03-17T12:37:16.680Z,37.49
2024-03-17T12:43:18.392Z,38.72
2024-03-17T12:49:20.110Z,39.97
2024-03-17T12:54:47.177Z,38.27
2024-03-17T13:00:07.517Z,38.85
2024-03-17T13:05:19.597Z,38.77
2024-03-17T13:10:21.615Z,38.22
2024-03-17T13:15:23.756Z,37.21
2024-03-17T13:20:26.143Z,37.25
2024-03-17T13:25:37.699Z,36.82
2024-03-17T13:30:40.943Z,36.18
2024-03-17T13:35:42.935Z,36.04
2024-03-17T13:40:47.223Z,36.44
2024-03-17T13:45:50.763Z,37.27
2024-03-17T13:50:52.827Z,37.55
2024-03-17T13:55:55.133Z,37.73
2024-03-17T14:01:07.119Z,37.32
2024-03-17T14:06:15.923Z,37.89
2024-03-17T14:12:17.729Z,37.91
2024-03-17T14:18:39.496Z,37.75
2024-03-17T14:25:01.202Z,37.78
2024-03-17T14:31:22.778Z,37.94
2024-03-17T14:36:45.565Z,37.94
2024-03-17T14:41:47.597Z,38.03
2024-03-17T14:46:53.284Z,37.57
2024-03-17T14:52:55.029Z,38.13
2024-03-17T14:58:16.895Z,38.17
2024-03-17T15:03:19.904Z,38.78
2024-03-17T15:08:22.062Z,39.31
2024-03-17T15:13:25.171Z,39.20
2024-03-17T15:18:27.904Z,39.70
2024-03-17T15:23:32.993Z,39.69
2024-03-17T15:28:44.686Z,39.71
2024-03-17T15:33:46.701Z,40.47
2024-03-17T15:38:48.640Z,41.10
2024-03-17T15:43:51.809Z,41.42
2024-03-17T15:48:53.996Z,41.48
2024-03-17T15:53:55.939Z,41.79
2024-03-17T15:58:58.075Z,42.02
2024-03-17T16:04:00.287Z,42.76
2024-03-17T16:09:02.618Z,43.07
2024-03-17T16:15:04.317Z,43.14
2024-03-17T16:21:27.960Z,44.20
2024-03-17T16:27:49.672Z,44.79
2024-03-17T16:33:13.662Z,45.30
2024-03-17T16:38:17.486Z,45.73
2024-03-17T16:43:47.350Z,46.42
2024-03-17T16:48:50.411Z,47.29
2024-03-17T16:53:52.370Z,48.03
2024-03-17T16:58:54.325Z,48.69
2024-03-17T17:03:57.407Z,49.41
2024-03-17T17:08:59.463Z,50.16
2024-03-17T17:14:01.424Z,50.50
2024-03-17T17:19:08.213Z,50.98
2024-03-17T17:24:20.207Z,51.48
2024-03-17T17:29:22.285Z,51.72
2024-03-17T17:34:24.496Z,52.11
2024-03-17T17:39:26.739Z,52.62
2024-03-17T17:44:29.018Z,53.04
2024-03-17T17:49:31.116Z,53.28
2024-03-17T17:54:33.688Z,53.57
2024-03-17T17:59:37.518Z,53.90
2024-03-17T18:04:39.427Z,53.93
2024-03-17T18:09:41.355Z,54.22
2024-03-17T18:14:43.447Z,54.45
2024-03-17T18:19:46.084Z,54.73
2024-03-17T18:24:49.094Z,54.66
2024-03-17T18:29:51.002Z,54.61
2024-03-17T18:34:52.989Z,54.74
2024-03-17T18:39:55.194Z,54.79
2024-03-17T18:44:57.190Z,54.90
2024-03-17T18:49:59.362Z,54.90
2024-03-17T18:55:01.442Z,54.88
2024-03-17T19:00:04.633Z,55.22
2024-03-17T19:05:07.193Z,55.27
2024-03-17T19:10:10.398Z,55.41
2024-03-17T19:15:14.802Z,55.60
2024-03-17T19:20:22.421Z,55.94
2024-03-17T19:25:27.057Z,56.23
2024-03-17T19:30:29.245Z,56.56
2024-03-17T19:35:32.470Z,56.67
2024-03-17T19:40:34.600Z,57.09
2024-03-17T19:45:36.668Z,57.33
2024-03-17T19:50:38.996Z,57.78
2024-03-17T19:55:50.907Z,58.49
2024-03-17T20:00:55.527Z,59.08
2024-03-17T20:05:59.261Z,59.42
2024-03-17T20:11:01.757Z,59.67
2024-03-17T20:16:05.225Z,59.37
2024-03-17T20:21:07.230Z,59.54
2024-03-17T20:27:08.980Z,59.62
2024-03-17T20:33:33.217Z,59.53
2024-03-17T20:39:54.866Z,59.93
2024-03-17T20:46:16.535Z,60.13
2024-03-17T20:51:46.997Z,60.28
2024-03-17T21:03:37.617Z,60.10
2024-03-17T21:08:39.867Z,59.63
2024-03-17T21:13:41.889Z,59.91
2024-03-17T21:18:43.858Z,60.10
2024-03-17T21:24:45.584Z,60.27
2024-03-17T21:31:07.385Z,60.58
2024-03-17T21:37:29.122Z,60.93
2024-03-17T21:42:51.440Z,61.25
2024-03-17T21:47:53.431Z,61.23
2024-03-17T21:52:55.760Z,61.34
2024-03-17T21:57:58.061Z,61.52
2024-03-17T22:03:59.878Z,61.74
2024-03-17T22:10:21.496Z,61.90
2024-03-17T22:15:43.494Z,62.34
2024-03-17T22:20:58.602Z,62.48
2024-03-17T22:26:02.316Z,62.45
2024-03-17T22:32:04.065Z,62.37
2024-03-17T22:37:25.918Z,62.64
2024-03-17T22:43:27.607Z,62.94
2024-03-17T22:49:49.369Z,62.83
2024-03-17T22:56:10.953Z,61.79
2024-03-17T23:02:33.003Z,60.44
2024-03-17T23:07:54.957Z,60.01
2024-03-17T23:12:56.917Z,60.03
2024-03-17T23:18:58.661Z,60.02
2024-03-17T23:25:20.370Z,60.06
2024-03-17T23:31:41.996Z,60.40
2024-03-17T23:38:03.690Z,60.30
2024-03-17T23:43:25.768Z,60.22
2024-03-17T23:49:27.510Z,60.29
2024-03-17T23:55:49.172Z,60.44
